createdAt,value
2018-06-12T00:02:01.599Z,11.00
2018-06-12T00:04:31.088Z,10.33
2018-06-12T00:06:59.615Z,7.60
2018-06-12T00:09:28.135Z,9.93
2018-06-12T00:11:56.656Z,12.28
2018-06-12T00:14:25.097Z,10.23
2018-06-12T00:16:53.592Z,11.03
2018-06-12T00:19:23.006Z,9.53
2018-06-12T00:21:51.461Z,11.60
2018-06-12T00:24:20.027Z,11.73
2018-06-12T00:26:48.607Z,9.03
2018-06-12T00:29:17.038Z,11.17
2018-06-12T00:31:45.505Z,6.60
2018-06-12T00:34:14.027Z,9.87
2018-06-12T00:36:42.575Z,11.53
2018-06-12T00:39:11.043Z,9.60
2018-06-12T00:41:39.589Z,10.95
2018-06-12T00:44:08.047Z,11.00
2018-06-12T00:46:36.534Z,8.57
2018-06-12T00:49:05.559Z,9.38
2018-06-12T00:51:34.142Z,7.53
2018-06-12T00:54:02.591Z,10.90
2018-06-12T00:56:42.229Z,9.38
2018-06-12T00:59:10.998Z,11.30
2018-06-12T01:01:39.468Z,13.65
2018-06-12T01:04:07.933Z,11.50
2018-06-12T01:06:36.405Z,12.30
2018-06-12T01:09:06.232Z,8.17
2018-06-12T02:02:49.198Z,9.50
2018-06-12T02:05:17.931Z,11.37
2018-06-12T02:07:46.351Z,10.87
2018-06-12T02:10:14.754Z,8.37
2018-06-12T02:12:43.214Z,11.23
2018-06-12T02:15:11.923Z,10.00
2018-06-12T02:17:40.420Z,10.43
2018-06-12T02:20:08.962Z,7.57
2018-06-12T02:22:37.382Z,7.83
2018-06-12T02:25:06.610Z,7.92
2018-06-12T02:27:35.167Z,6.73
2018-06-12T02:30:03.804Z,6.93
2018-06-12T02:32:32.940Z,8.13
2018-06-12T02:35:01.515Z,8.23
2018-06-12T02:37:30.125Z,8.47
2018-06-12T02:39:58.742Z,12.30
2018-06-12T02:42:27.423Z,7.87
2018-06-12T02:44:55.839Z,7.43
2018-06-12T02:47:24.354Z,11.17
2018-06-12T02:49:53.874Z,5.57
2018-06-12T02:52:22.441Z,7.20
2018-06-12T02:54:51.079Z,5.50
2018-06-12T02:57:19.619Z,6.47
2018-06-12T02:59:48.057Z,7.22
2018-06-12T03:02:16.589Z,13.77
2018-06-12T03:04:45.179Z,7.90
2018-06-12T03:07:13.657Z,7.03
2018-06-12T03:09:42.086Z,8.93
2018-06-12T03:12:11.024Z,9.67
2018-06-12T03:14:39.491Z,6.93
2018-06-12T03:17:08.119Z,7.87
2018-06-12T03:19:36.759Z,8.27
2018-06-12T03:22:05.667Z,9.27
2018-06-12T03:24:38.186Z,8.28
2018-06-12T03:27:07.301Z,8.00
2018-06-12T03:29:36.192Z,8.30
2018-06-12T03:32:04.721Z,8.37
2018-06-12T03:34:33.309Z,8.55
2018-06-12T03:37:01.912Z,8.03
2018-06-12T03:39:30.431Z,8.75
2018-06-12T03:41:58.964Z,13.97
2018-06-12T03:44:27.964Z,10.72
2018-06-12T03:46:56.472Z,10.83
2018-06-12T03:49:25.002Z,13.17
2018-06-12T03:51:54.733Z,12.63
2018-06-12T03:54:23.148Z,10.87
2018-06-12T03:56:51.663Z,9.63
2018-06-12T03:59:20.137Z,9.90
2018-06-12T04:01:48.622Z,10.30
2018-06-12T04:04:17.124Z,12.83
2018-06-12T04:06:46.422Z,11.48
2018-06-12T04:09:15.266Z,9.33
2018-06-12T04:11:44.010Z,8.27
2018-06-12T04:14:12.525Z,7.13
2018-06-12T04:16:40.927Z,13.77
2018-06-12T04:19:10.506Z,8.73
2018-06-12T04:21:38.918Z,6.43
2018-06-12T04:24:07.586Z,8.30
2018-06-12T04:26:36.053Z,7.78
2018-06-12T04:29:08.000Z,13.62
2018-06-12T04:31:36.838Z,16.43
2018-06-12T04:34:05.452Z,11.33
2018-06-12T04:36:33.874Z,8.73
2018-06-12T04:39:02.487Z,10.88
2018-06-12T04:41:30.973Z,11.75
2018-06-12T04:43:59.743Z,10.70
2018-06-12T04:46:28.575Z,7.90
2018-06-12T04:48:57.107Z,13.10
2018-06-12T04:51:25.490Z,6.80
2018-06-12T04:53:53.974Z,8.13
2018-06-12T04:56:22.474Z,10.73
2018-06-12T04:58:50.989Z,6.37
2018-06-12T05:01:19.650Z,13.15
2018-06-12T05:03:48.150Z,9.00
2018-06-12T05:06:16.654Z,9.70
2018-06-12T05:08:45.355Z,8.88
2018-06-12T05:11:13.793Z,11.73
2018-06-12T05:13:42.223Z,9.78
2018-06-12T05:16:10.646Z,7.67
2018-06-12T05:18:39.098Z,12.50
2018-06-12T05:21:07.734Z,9.17
2018-06-12T05:23:36.170Z,6.70
2018-06-12T05:26:04.702Z,8.53
2018-06-12T05:28:33.139Z,7.97
2018-06-12T05:31:01.646Z,5.45
2018-06-12T05:33:33.795Z,6.43
2018-06-12T05:36:02.376Z,8.68
2018-06-12T05:38:30.834Z,10.87
2018-06-12T05:40:59.473Z,6.62
2018-06-12T05:43:27.956Z,7.95
2018-06-12T05:45:56.506Z,9.87
2018-06-12T05:48:25.284Z,8.95
2018-06-12T05:50:53.966Z,10.00
2018-06-12T05:53:22.467Z,6.90
2018-06-12T05:55:50.970Z,6.13
2018-06-12T05:58:19.514Z,5.90
2018-06-12T06:00:48.121Z,4.85
2018-06-12T06:03:16.592Z,9.03
2018-06-12T06:05:45.057Z,3.35
2018-06-12T06:08:13.558Z,3.25
2018-06-12T06:10:42.249Z,3.57
2018-06-12T06:13:10.695Z,2.80
2018-06-12T06:15:39.170Z,2.58
2018-06-12T06:18:07.567Z,3.13
2018-06-12T06:20:36.165Z,6.90
2018-06-12T06:23:04.726Z,3.90
2018-06-12T06:25:33.134Z,2.17
2018-06-12T06:28:01.886Z,3.12
2018-06-12T06:30:30.499Z,2.30
2018-06-12T06:32:59.058Z,5.13
2018-06-12T06:35:29.371Z,6.40
2018-06-12T06:37:57.810Z,8.00
2018-06-12T06:40:26.357Z,2.98
2018-06-12T06:42:54.853Z,5.60
2018-06-12T06:45:23.357Z,6.63
2018-06-12T06:47:53.233Z,5.17
2018-06-12T06:50:22.238Z,5.05
2018-06-12T06:52:50.759Z,4.90
2018-06-12T06:55:19.380Z,3.70
2018-06-12T06:57:48.063Z,4.30
2018-06-12T07:00:17.654Z,4.80
2018-06-12T07:02:46.096Z,6.00
2018-06-12T07:05:15.252Z,3.95
2018-06-12T07:07:44.709Z,9.67
2018-06-12T07:10:13.408Z,4.57
2018-06-12T07:12:42.160Z,7.83
2018-06-12T07:15:10.692Z,2.25
2018-06-12T07:17:39.185Z,4.70
2018-06-12T07:20:08.003Z,5.53
2018-06-12T07:22:36.545Z,4.55
2018-06-12T07:25:06.110Z,6.05
2018-06-12T07:27:35.711Z,4.87
2018-06-12T07:30:04.912Z,4.75
2018-06-12T07:32:33.290Z,3.27
2018-06-12T07:35:01.808Z,2.77
2018-06-12T07:37:30.394Z,2.40
2018-06-12T07:39:58.730Z,5.72
2018-06-12T07:42:30.909Z,4.78
2018-06-12T07:44:59.658Z,1.98
2018-06-12T07:47:28.241Z,2.05
2018-06-12T07:49:56.707Z,2.50
2018-06-12T07:52:25.147Z,3.52
2018-06-12T07:54:53.626Z,3.25
2018-06-12T07:57:22.087Z,3.80
2018-06-12T07:59:50.565Z,3.15
2018-06-12T08:02:19.047Z,2.12
2018-06-12T08:04:47.776Z,4.25
2018-06-12T08:07:16.243Z,4.28
2018-06-12T08:09:44.885Z,2.35
2018-06-12T08:12:14.669Z,3.72
2018-06-12T08:14:43.106Z,3.22
2018-06-12T08:17:11.638Z,2.40
2018-06-12T08:19:40.431Z,4.17
2018-06-12T08:22:10.106Z,4.40
2018-06-12T08:24:39.279Z,3.92
2018-06-12T08:27:07.849Z,3.60
2018-06-12T08:29:36.292Z,3.50
2018-06-12T08:32:04.815Z,4.03
2018-06-12T08:34:33.237Z,5.05
2018-06-12T08:37:01.719Z,3.02
2018-06-12T08:39:30.214Z,3.15
2018-06-12T08:41:58.698Z,4.03
2018-06-12T08:44:27.624Z,2.47
2018-06-12T08:47:00.642Z,3.72
2018-06-12T08:49:29.119Z,2.98
2018-06-12T08:51:57.672Z,5.60
2018-06-12T08:54:26.418Z,3.15
2018-06-12T08:56:54.937Z,4.92
2018-06-12T08:59:23.374Z,4.60
2018-06-12T09:01:51.842Z,3.20
2018-06-12T09:04:20.642Z,3.50
2018-06-12T09:06:49.259Z,4.03
2018-06-12T09:09:17.727Z,2.58
2018-06-12T09:11:46.158Z,1.40
2018-06-12T09:14:14.687Z,1.30
2018-06-12T09:16:43.146Z,1.10
2018-06-12T09:19:11.618Z,2.35
2018-06-12T09:21:40.082Z,0.93
2018-06-12T09:24:08.507Z,2.00
2018-06-12T09:26:36.925Z,5.78
2018-06-12T09:29:05.342Z,1.02
2018-06-12T09:31:34.831Z,1.02
2018-06-12T09:34:03.518Z,2.72
2018-06-12T09:36:35.635Z,3.55
2018-06-12T09:39:07.684Z,1.60
2018-06-12T09:41:36.570Z,1.00
2018-06-12T09:44:05.133Z,1.55
2018-06-12T09:46:33.606Z,2.45
2018-06-12T09:49:02.162Z,2.45
2018-06-12T09:51:30.830Z,2.20
2018-06-12T09:53:59.286Z,4.30
2018-06-12T09:56:27.829Z,1.00
2018-06-12T09:58:56.350Z,1.35
2018-06-12T10:01:25.330Z,2.27
2018-06-12T10:03:54.198Z,3.35
2018-06-12T10:06:22.610Z,3.87
2018-06-12T10:08:51.247Z,1.27
2018-06-12T10:11:19.753Z,2.02
2018-06-12T10:13:48.255Z,5.33
2018-06-12T10:16:17.827Z,1.50
2018-06-12T10:18:46.497Z,1.42
2018-06-12T10:21:15.244Z,1.92
2018-06-12T10:23:43.738Z,1.10
2018-06-12T10:26:12.246Z,1.10
2018-06-12T10:28:40.680Z,1.30
2018-06-12T10:31:09.338Z,1.30
2018-06-12T10:33:37.782Z,1.32
2018-06-12T10:36:06.295Z,1.37
2018-06-12T10:38:34.994Z,3.60
2018-06-12T10:41:03.497Z,3.98
2018-06-12T10:43:32.003Z,2.80
2018-06-12T10:46:00.462Z,1.55
2018-06-12T10:48:29.012Z,1.67
2018-06-12T10:50:57.483Z,1.25
2018-06-12T10:53:25.956Z,3.12
2018-06-12T10:55:58.956Z,1.82
2018-06-12T10:58:28.379Z,1.40
2018-06-12T11:00:56.945Z,3.37
2018-06-12T11:03:25.446Z,1.87
2018-06-12T11:05:53.822Z,1.77
2018-06-12T11:08:22.303Z,3.50
2018-06-12T11:10:50.741Z,4.00
2018-06-12T11:13:19.210Z,2.02
2018-06-12T11:15:47.927Z,1.40
2018-06-12T11:18:16.340Z,2.62
2018-06-12T11:20:44.807Z,3.55
2018-06-12T11:23:13.229Z,3.42
2018-06-12T11:25:41.710Z,1.70
2018-06-12T11:28:10.271Z,2.05
2018-06-12T11:30:38.855Z,1.50
2018-06-12T11:33:07.454Z,2.33
2018-06-12T11:35:35.938Z,2.17
2018-06-12T11:38:04.667Z,0.93
2018-06-12T11:40:33.162Z,1.52
2018-06-12T11:43:01.655Z,1.50
2018-06-12T11:45:30.127Z,2.25
2018-06-12T11:47:58.565Z,1.17
2018-06-12T11:50:27.149Z,3.12
2018-06-12T11:52:55.625Z,2.98
2018-06-12T11:55:24.359Z,1.67
2018-06-12T11:57:53.182Z,1.95
2018-06-12T12:00:25.641Z,2.75
2018-06-12T12:02:54.185Z,4.53
2018-06-12T12:05:22.658Z,3.72
2018-06-12T12:07:53.034Z,1.30
2018-06-12T12:10:21.608Z,3.37
2018-06-12T12:12:52.738Z,1.40
2018-06-12T12:15:23.886Z,1.80
2018-06-12T12:17:55.537Z,3.17
2018-06-12T12:20:26.797Z,2.60
2018-06-12T12:22:58.435Z,1.80
2018-06-12T12:25:29.935Z,2.05
2018-06-12T12:28:01.820Z,2.87
2018-06-12T12:30:34.923Z,1.85
2018-06-12T12:37:57.290Z,1.30
2018-06-12T12:40:35.809Z,1.85
2018-06-12T12:43:07.768Z,1.98
2018-06-12T12:45:40.339Z,1.87
2018-06-12T12:48:21.012Z,2.10
2018-06-12T12:50:53.277Z,1.77
2018-06-12T12:53:25.981Z,1.80
2018-06-12T12:55:59.039Z,1.00
2018-06-12T12:58:28.003Z,3.85
2018-06-12T13:01:00.502Z,1.50
2018-06-12T13:03:32.282Z,2.20
2018-06-12T13:15:42.261Z,2.35
2018-06-12T13:18:14.623Z,1.40
2018-06-12T13:20:51.703Z,2.87
2018-06-12T13:23:22.743Z,1.67
2018-06-12T13:25:53.508Z,2.55
2018-06-12T13:28:24.309Z,1.40
2018-06-12T13:30:55.963Z,1.67
2018-06-12T13:33:27.240Z,2.25
2018-06-12T13:36:17.806Z,1.95
2018-06-12T13:53:22.337Z,0.98
2018-06-12T13:55:54.270Z,1.62
2018-06-12T13:58:25.516Z,1.55
2018-06-12T14:00:56.964Z,1.57
2018-06-12T14:03:30.253Z,2.37
2018-06-12T14:06:30.266Z,1.12
2018-06-12T14:09:03.553Z,2.92
2018-06-12T14:11:41.463Z,3.47
2018-06-12T14:14:21.112Z,1.45
2018-06-12T14:16:53.568Z,2.58
2018-06-12T14:19:26.557Z,1.65
2018-06-12T14:22:03.657Z,1.20
2018-06-12T14:24:33.042Z,1.72
2018-06-12T14:27:04.583Z,2.70
2018-06-12T14:29:38.289Z,1.92
2018-06-12T14:32:11.069Z,1.67
2018-06-12T14:34:43.132Z,2.22
2018-06-12T14:37:17.342Z,1.17
2018-06-12T14:39:48.896Z,0.90
2018-06-12T14:42:19.935Z,3.40
2018-06-12T14:44:50.870Z,1.05
2018-06-12T14:47:21.910Z,1.42
2018-06-12T14:49:54.588Z,1.25
2018-06-12T14:52:25.931Z,1.27
2018-06-12T14:55:01.260Z,1.00
2018-06-12T14:57:34.867Z,1.45
2018-06-12T15:00:17.481Z,1.40
2018-06-12T15:02:51.475Z,5.22
2018-06-12T15:05:24.655Z,1.80
2018-06-12T15:24:22.844Z,2.05
2018-06-12T15:26:55.109Z,1.17
2018-06-12T15:29:25.944Z,2.77
2018-06-12T15:31:56.983Z,1.45
2018-06-12T15:34:28.515Z,2.10
2018-06-12T15:37:01.272Z,1.10
2018-06-12T15:39:30.103Z,1.10
2018-06-12T15:41:58.546Z,1.92
2018-06-12T15:44:27.226Z,3.65
2018-06-12T15:46:55.735Z,2.92
2018-06-12T15:49:24.527Z,1.12
2018-06-12T15:51:52.995Z,1.45
2018-06-12T15:54:21.461Z,1.40
2018-06-12T15:56:49.912Z,2.05
2018-06-12T15:59:18.387Z,1.12
2018-06-12T16:01:46.787Z,1.12
2018-06-12T16:04:15.267Z,1.10
2018-06-12T16:06:43.758Z,6.80
2018-06-12T16:09:12.249Z,2.33
2018-06-12T16:11:40.836Z,1.67
2018-06-12T16:14:09.422Z,1.07
2018-06-12T16:16:37.874Z,1.60
2018-06-12T16:19:06.329Z,1.42
2018-06-12T16:21:34.714Z,3.47
2018-06-12T16:24:03.206Z,1.17
2018-06-12T16:26:31.570Z,1.02
2018-06-12T16:28:59.990Z,1.42
2018-06-12T16:31:28.454Z,1.00
2018-06-12T16:33:56.855Z,1.02
2018-06-12T16:36:25.317Z,1.95
2018-06-12T16:38:53.866Z,2.58
2018-06-12T16:41:22.263Z,2.77
2018-06-12T16:43:50.688Z,1.05
2018-06-12T16:46:19.126Z,1.30
2018-06-12T16:48:47.718Z,1.15
2018-06-12T16:51:16.106Z,1.57
2018-06-12T16:53:44.627Z,2.00
2018-06-12T16:56:13.051Z,1.20
2018-06-12T16:58:41.449Z,1.30
2018-06-12T17:01:09.818Z,3.05
2018-06-12T17:03:38.225Z,1.30
2018-06-12T17:06:11.330Z,4.30
2018-06-12T17:08:42.953Z,1.50
2018-06-12T17:11:37.678Z,1.12
2018-06-12T17:14:09.747Z,0.90
2018-06-12T17:16:41.298Z,2.58
2018-06-12T17:19:12.784Z,0.88
2018-06-12T17:21:44.192Z,1.22
2018-06-12T17:24:17.072Z,1.32
2018-06-12T17:26:49.757Z,1.40
2018-06-12T17:29:21.013Z,57.03
2018-06-12T17:31:52.840Z,17.73
2018-06-12T17:34:25.119Z,31.65
2018-06-12T17:36:58.724Z,11.63
2018-06-12T17:39:30.096Z,2.92
2018-06-12T17:44:42.479Z,2.25
2018-06-12T17:47:13.117Z,1.55
2018-06-12T17:49:43.603Z,2.10
2018-06-12T17:52:14.991Z,1.65
2018-06-12T17:54:45.568Z,1.60
2018-06-12T17:57:16.503Z,1.60
2018-06-12T17:59:47.492Z,1.40
2018-06-12T18:02:19.759Z,1.67
2018-06-12T18:04:51.998Z,4.28
2018-06-12T18:07:23.081Z,2.35
2018-06-12T18:09:54.618Z,3.22
2018-06-12T18:12:27.193Z,1.02
2018-06-12T18:14:58.232Z,1.90
2018-06-12T18:17:29.676Z,1.37
2018-06-12T18:20:02.229Z,1.40
2018-06-12T18:22:33.907Z,2.58
2018-06-12T18:25:06.069Z,3.45
2018-06-12T18:27:37.914Z,2.00
2018-06-12T18:30:09.602Z,4.42
2018-06-12T18:32:41.237Z,3.35
2018-06-12T18:35:13.020Z,5.00
2018-06-12T18:37:44.820Z,1.60
2018-06-12T18:40:17.112Z,3.30
2018-06-12T18:42:49.384Z,1.75
2018-06-12T18:45:21.237Z,1.42
2018-06-12T18:47:53.447Z,3.70
2018-06-12T18:50:24.759Z,1.30
2018-06-12T18:52:56.526Z,1.50
2018-06-12T18:55:27.858Z,3.42
2018-06-12T18:57:59.292Z,1.37
2018-06-12T19:00:31.061Z,2.22
2018-06-12T19:03:04.449Z,1.50
2018-06-12T19:05:35.994Z,2.77
2018-06-12T19:08:07.345Z,1.72
2018-06-12T19:10:39.927Z,3.22
2018-06-12T19:13:11.362Z,1.40
2018-06-12T19:15:42.659Z,1.80
2018-06-12T19:18:14.267Z,2.55
2018-06-12T19:20:45.498Z,3.40
2018-06-12T19:23:16.860Z,1.82
2018-06-12T19:25:47.792Z,1.62
2018-06-12T19:28:19.547Z,5.15
2018-06-12T19:30:53.041Z,2.58
2018-06-12T19:33:24.489Z,1.95
2018-06-12T19:35:56.316Z,3.77
2018-06-12T19:38:27.516Z,1.87
2018-06-12T19:40:58.833Z,2.58
2018-06-12T19:43:30.580Z,5.42
2018-06-12T19:46:01.833Z,2.55
2018-06-12T19:48:33.269Z,2.55
2018-06-12T19:51:05.592Z,3.25
2018-06-12T19:53:37.503Z,2.35
2018-06-12T19:56:09.162Z,2.58
2018-06-12T19:58:41.018Z,3.75
2018-06-12T20:01:15.169Z,2.15
2018-06-12T20:03:46.168Z,3.60
2018-06-12T20:06:17.291Z,3.10
2018-06-12T20:08:49.182Z,2.40
2018-06-12T20:11:22.249Z,2.08
2018-06-12T20:13:54.004Z,3.17
2018-06-12T20:16:25.866Z,3.42
2018-06-12T20:18:58.438Z,4.55
2018-06-12T20:21:30.403Z,2.20
2018-06-12T20:24:02.591Z,1.90
2018-06-12T20:26:35.551Z,2.50
2018-06-12T20:29:08.190Z,2.00
2018-06-12T20:31:41.442Z,2.40
2018-06-12T20:34:13.268Z,6.20
2018-06-12T20:36:44.719Z,3.50
2018-06-12T20:39:16.218Z,2.35
2018-06-12T20:41:48.012Z,2.10
2018-06-12T20:44:18.758Z,2.90
2018-06-12T20:46:50.161Z,2.10
2018-06-12T20:49:21.040Z,3.10
2018-06-12T20:51:52.281Z,2.30
2018-06-12T20:54:24.180Z,3.07
2018-06-12T20:56:54.873Z,3.73
2018-06-12T20:59:25.804Z,1.77
2018-06-12T21:01:56.233Z,1.77
2018-06-12T21:04:26.760Z,1.90
2018-06-12T21:06:55.547Z,1.82
2018-06-12T21:09:24.057Z,4.35
2018-06-12T21:11:52.571Z,3.33
2018-06-12T21:14:21.226Z,3.80
2018-06-12T21:16:49.733Z,4.97
2018-06-12T21:19:18.272Z,5.60
2018-06-12T21:21:46.724Z,7.03
2018-06-12T21:24:15.162Z,7.17
2018-06-12T21:26:43.688Z,8.60
2018-06-12T21:29:12.143Z,8.37
2018-06-12T21:31:40.582Z,9.00
2018-06-12T21:34:09.250Z,9.73
2018-06-12T21:36:37.694Z,11.45
2018-06-12T21:39:07.765Z,16.03
2018-06-12T21:41:40.275Z,20.57
2018-06-12T21:44:08.743Z,22.27
2018-06-12T21:46:37.508Z,23.50
2018-06-12T21:49:06.078Z,27.97
2018-06-12T21:51:34.547Z,28.57
2018-06-12T21:54:03.165Z,31.57
2018-06-12T21:56:31.986Z,34.73
2018-06-12T21:59:00.442Z,35.50
2018-06-12T22:01:29.497Z,33.90
2018-06-12T22:03:57.929Z,35.90
2018-06-12T22:06:26.379Z,38.17
2018-06-12T22:08:54.786Z,38.07
2018-06-12T22:11:23.241Z,37.60
2018-06-12T22:13:51.835Z,37.63
2018-06-12T22:16:23.630Z,36.43
2018-06-12T22:18:52.845Z,37.47
2018-06-12T22:21:21.259Z,37.37
2018-06-12T22:23:49.739Z,37.57
2018-06-12T22:26:18.121Z,39.37
2018-06-12T22:28:46.522Z,39.03
2018-06-12T22:31:15.152Z,37.47
2018-06-12T22:33:43.586Z,40.23
2018-06-12T22:36:12.138Z,33.87
2018-06-12T22:38:40.698Z,32.50
2018-06-12T22:41:09.170Z,30.83
2018-06-12T22:43:37.806Z,28.47
2018-06-12T22:46:10.685Z,27.73
2018-06-12T22:48:39.142Z,29.90
2018-06-12T22:51:07.561Z,34.27
2018-06-12T22:53:36.223Z,38.37
2018-06-12T22:56:04.758Z,33.73
2018-06-12T22:58:33.551Z,37.93
2018-06-12T23:01:02.016Z,36.10
2018-06-12T23:03:30.754Z,40.37
2018-06-12T23:05:59.173Z,40.73
2018-06-12T23:08:27.649Z,39.50
2018-06-12T23:10:56.191Z,37.13
2018-06-12T23:13:24.595Z,34.10
2018-06-12T23:15:53.097Z,37.27
2018-06-12T23:18:21.913Z,37.70
2018-06-12T23:22:05.627Z,36.07
2018-06-12T23:24:34.326Z,39.17
2018-06-12T23:27:02.935Z,41.70
2018-06-12T23:29:31.371Z,38.17
2018-06-12T23:31:59.761Z,41.27
2018-06-12T23:34:28.313Z,42.10
2018-06-12T23:36:56.751Z,40.50
2018-06-12T23:39:25.273Z,47.03
2018-06-12T23:41:53.705Z,44.13
2018-06-12T23:44:22.182Z,43.03
2018-06-12T23:46:50.674Z,37.63
2018-06-12T23:49:19.126Z,39.00
2018-06-12T23:51:47.743Z,37.67
2018-06-12T23:54:16.437Z,30.80
2018-06-12T23:56:44.834Z,35.03
2018-06-12T23:59:13.255Z,29.97
